Time;durP1;ratioP1;P1;durP2;ratioP2;P2;SDS_P1;SDS_P2;PMS_P1;PMS_P2;Temp;Humidity;BMP_temperature;BMP_pressure;BME280_temperature;BME280_humidity;BME280_pressure;Samples;Min_cycle;Max_cycle;Signal;HPM_P1;HPM_P2
2022/05/26 00:02:07;;;;;;;1.65;1.48;;;22.10;65.80;;;;;;5104493;28;20050;-37
2022/05/26 00:04:33;;;;;;;1.70;1.38;;;22.10;65.80;;;;;;5106196;28;20454;-36
2022/05/26 00:06:59;;;;;;;1.27;1.17;;;22.10;65.80;;;;;;5106515;28;20028;-36
2022/05/26 00:09:25;;;;;;;1.53;1.30;;;22.20;65.90;;;;;;5106875;28;20039;-36
2022/05/26 00:11:51;;;;;;;1.50;1.13;;;22.20;65.90;;;;;;5106850;28;20031;-37
2022/05/26 00:14:17;;;;;;;1.58;1.05;;;22.20;66.00;;;;;;5108152;28;20035;-37
2022/05/26 00:16:45;;;;;;;1.77;1.23;;;22.20;66.00;;;;;;5111105;28;20039;-36
2022/05/26 00:19:13;;;;;;;1.02;0.93;;;22.20;65.90;;;;;;5103851;28;20143;-37
2022/05/26 00:21:39;;;;;;;2.05;1.20;;;22.20;66.00;;;;;;5106708;28;20024;-36
2022/05/26 00:24:05;;;;;;;1.30;1.00;;;22.30;66.00;;;;;;5106399;28;20024;-36
2022/05/26 00:26:31;;;;;;;1.20;0.90;;;22.30;66.10;;;;;;5105064;28;20032;-37
2022/05/26 00:28:57;;;;;;;1.80;1.25;;;22.30;66.00;;;;;;5106542;28;20046;-37
2022/05/26 00:31:24;;;;;;;1.63;1.20;;;22.30;66.00;;;;;;5106784;28;20243;-38
2022/05/26 00:33:50;;;;;;;2.70;1.30;;;22.30;66.00;;;;;;5109640;28;20028;-37
2022/05/26 00:36:16;;;;;;;2.30;1.10;;;22.30;66.00;;;;;;5105217;28;20028;-38
2022/05/26 00:38:43;;;;;;;1.65;1.10;;;22.40;66.30;;;;;;5102054;28;20531;-37
2022/05/26 00:41:12;;;;;;;2.75;1.30;;;22.40;66.30;;;;;;5100899;28;20032;-39
2022/05/26 00:43:43;;;;;;;1.30;1.20;;;22.40;66.30;;;;;;5103532;28;20031;-38
2022/05/26 00:46:19;;;;;;;2.13;1.20;;;22.40;65.50;;;;;;5109076;28;20110;-38
2022/05/26 00:48:48;;;;;;;1.73;1.35;;;22.40;65.00;;;;;;5103431;28;20039;-38
2022/05/26 00:51:15;;;;;;;0.80;0.80;;;22.40;64.50;;;;;;5139113;27;20027;-38
2022/05/26 00:53:46;;;;;;;;;;;22.40;65.00;;;;;;5109800;28;20028;-38
2022/05/26 00:56:39;;;;;;;1.15;1.05;;;22.40;65.00;;;;;;5102616;28;19930;-38
2022/05/26 00:59:29;;;;;;;1.70;1.10;;;22.40;65.00;;;;;;5094136;28;20043;-40
2022/05/26 01:01:55;;;;;;;1.63;1.30;;;22.40;65.00;;;;;;5101972;28;20092;-37
2022/05/26 01:04:22;;;;;;;1.15;1.05;;;22.40;65.00;;;;;;5101829;28;20464;-37
2022/05/26 01:07:01;;;;;;;1.60;1.30;;;22.40;65.20;;;;;;5100979;28;20024;-46
2022/05/26 01:09:27;;;;;;;3.78;1.23;;;22.50;64.80;;;;;;5100375;28;20043;-46
2022/05/26 01:11:53;;;;;;;2.30;1.23;;;22.40;64.40;;;;;;5102680;28;20023;-49
2022/05/26 01:14:23;;;;;;;2.92;1.20;;;22.50;64.40;;;;;;5098514;28;20115;-48
2022/05/26 01:17:10;;;;;;;1.33;1.10;;;22.50;64.20;;;;;;5096603;28;20035;-46
2022/05/26 01:20:08;;;;;;;1.67;1.17;;;22.50;64.10;;;;;;5099910;28;20553;-42
2022/05/26 01:23:01;;;;;;;1.30;1.20;;;22.50;64.00;;;;;;5091749;28;20614;-41
2022/05/26 01:25:55;;;;;;;1.40;1.30;;;22.50;63.90;;;;;;5099713;28;20623;-44
2022/05/26 01:28:58;;;;;;;2.40;1.20;;;22.50;63.90;;;;;;5098546;28;20032;-37
2022/05/26 01:31:45;;;;;;;2.25;1.02;;;22.50;63.90;;;;;;5102135;28;20027;-38
2022/05/26 01:34:43;;;;;;;2.30;1.40;;;22.50;64.10;;;;;;5090121;28;20060;-36
2022/05/26 01:37:37;;;;;;;2.03;1.30;;;22.50;64.20;;;;;;5096307;28;20100;-36
2022/05/26 01:40:09;;;;;;;1.85;1.17;;;22.50;65.00;;;;;;5120481;27;20070;-36
2022/05/26 01:43:14;;;;;;;1.88;1.05;;;22.50;64.20;;;;;;5093939;28;20039;-37
2022/05/26 01:45:49;;;;;;;1.42;1.20;;;22.50;64.20;;;;;;5098365;28;20036;-37
2022/05/26 01:48:57;;;;;;;1.50;1.30;;;22.50;64.30;;;;;;5099081;28;20032;-37
2022/05/26 01:51:33;;;;;;;1.33;1.20;;;22.60;64.50;;;;;;5033508;28;20139;-38
2022/05/26 01:54:23;;;;;;;1.48;1.27;;;22.60;64.50;;;;;;5034897;28;20677;-37
2022/05/26 01:57:04;;;;;;;3.13;1.17;;;22.60;64.50;;;;;;5037441;28;20030;-36
2022/05/26 01:59:32;;;;;;;1.80;1.02;;;22.60;64.50;;;;;;5020491;28;20858;-36
2022/05/26 02:02:02;;;;;;;1.33;1.13;;;22.60;64.50;;;;;;5019554;28;20040;-37
2022/05/26 02:04:42;;;;;;;3.38;1.10;;;22.60;64.60;;;;;;5022750;28;20192;-37
2022/05/26 02:07:31;;;;;;;1.27;1.17;;;22.60;64.60;;;;;;5034470;28;20069;-36
2022/05/26 02:09:58;;;;;;;1.85;1.25;;;22.60;64.70;;;;;;5033934;28;20073;-36
2022/05/26 02:12:55;;;;;;;1.52;1.42;;;22.70;64.10;;;;;;5034644;28;20037;-37
2022/05/26 02:15:38;;;;;;;1.48;1.38;;;22.70;63.10;;;;;;5009540;28;20067;-36
2022/05/26 02:18:35;;;;;;;2.08;1.60;;;22.70;62.80;;;;;;5019409;28;20068;-36
2022/05/26 02:21:29;;;;;;;1.33;1.23;;;22.70;62.70;;;;;;5037079;28;20079;-35
2022/05/26 02:24:10;;;;;;;1.63;1.25;;;22.70;62.70;;;;;;5096474;28;20024;-35
2022/05/26 02:26:37;;;;;;;1.70;1.50;;;22.70;62.70;;;;;;5081976;28;20741;-36
2022/05/26 02:31:49;;;;;;;1.60;1.50;;;22.70;62.80;;;;;;5096382;28;20105;-36
2022/05/26 02:34:16;;;;;;;1.55;1.45;;;22.70;62.90;;;;;;5086123;28;20104;-36
2022/05/26 02:36:42;;;;;;;1.60;1.50;;;22.70;63.00;;;;;;5110562;28;20517;-37
2022/05/26 02:39:08;;;;;;;2.33;1.40;;;22.70;63.10;;;;;;5096373;28;20035;-36
2022/05/26 02:41:34;;;;;;;2.22;1.52;;;22.70;63.10;;;;;;5089616;28;20382;-36
2022/05/26 02:44:00;;;;;;;1.50;1.40;;;22.70;63.20;;;;;;5094457;28;20055;-36
2022/05/26 02:46:54;;;;;;;1.55;1.45;;;22.70;63.20;;;;;;5095972;28;20012;-37
2022/05/26 02:50:08;;;;;;;1.73;1.42;;;22.70;63.40;;;;;;5092506;28;20035;-36
2022/05/26 02:53:11;;;;;;;3.13;1.40;;;22.70;63.50;;;;;;5087335;28;20059;-35
2022/05/26 02:55:55;;;;;;;1.63;1.30;;;22.70;63.60;;;;;;5095619;28;20034;-36
2022/05/26 02:58:28;;;;;;;1.85;1.23;;;22.70;63.60;;;;;;5094460;28;20040;-36
2022/05/26 03:01:07;;;;;;;3.63;1.48;;;22.70;63.60;;;;;;5085146;28;20044;-45
2022/05/26 03:03:45;;;;;;;2.55;1.10;;;22.70;63.70;;;;;;5099394;28;20023;-45
2022/05/26 03:06:30;;;;;;;1.60;1.42;;;22.70;63.80;;;;;;5095115;28;20028;-47
2022/05/26 03:08:56;;;;;;;2.20;1.30;;;22.70;63.90;;;;;;5104235;28;20032;-45
2022/05/26 03:11:24;;;;;;;2.17;1.30;;;22.70;63.90;;;;;;5092132;28;20099;-46
2022/05/26 03:13:50;;;;;;;1.52;1.20;;;22.70;63.90;;;;;;5098990;28;20036;-45
2022/05/26 03:16:17;;;;;;;1.50;1.40;;;22.70;63.90;;;;;;5100812;28;20091;-45
2022/05/26 03:18:43;;;;;;;1.45;1.30;;;22.70;63.90;;;;;;5094182;28;20044;-47
2022/05/26 03:21:09;;;;;;;1.77;1.30;;;22.70;64.00;;;;;;5101755;28;20024;-46
2022/05/26 03:23:36;;;;;;;1.20;1.10;;;22.70;64.00;;;;;;5103975;28;20029;-48
2022/05/26 03:26:02;;;;;;;1.73;1.27;;;22.80;64.00;;;;;;5097724;28;20457;-47
2022/05/26 03:28:30;;;;;;;2.03;1.23;;;22.80;64.00;;;;;;5098249;28;20040;-48
2022/05/26 03:30:57;;;;;;;;;;;22.80;64.00;;;;;;5101830;28;20087;-46
2022/05/26 03:33:23;;;;;;;1.48;0.90;;;22.80;64.00;;;;;;5099825;28;19963;-47
2022/05/26 03:41:23;;;;;;;1.27;1.17;;;22.80;64.10;;;;;;5104113;28;20046;-46
2022/05/26 03:43:54;;;;;;;1.23;1.13;;;22.80;64.10;;;;;;5085260;28;20032;-46
2022/05/26 03:46:20;;;;;;;1.45;1.05;;;22.80;64.10;;;;;;5092877;28;20034;-47
2022/05/26 03:48:46;;;;;;;1.60;1.30;;;22.80;64.10;;;;;;5098227;28;20035;-45
2022/05/26 03:51:12;;;;;;;1.80;1.50;;;22.90;63.50;;;;;;5096209;28;20047;-46
2022/05/26 03:53:38;;;;;;;1.52;1.42;;;22.80;62.60;;;;;;5099080;28;20062;-46
2022/05/26 03:56:05;;;;;;;1.50;1.38;;;22.90;61.70;;;;;;5105713;28;20055;-45
2022/05/26 03:58:31;;;;;;;2.25;1.70;;;22.80;60.70;;;;;;5100798;28;20040;-46
2022/05/26 04:01:03;;;;;;;1.55;1.45;;;22.80;60.10;;;;;;5102584;28;20020;-45
2022/05/26 04:03:29;;;;;;;1.70;1.60;;;22.80;59.70;;;;;;5100275;28;20030;-45
2022/05/26 04:05:55;;;;;;;1.77;1.52;;;22.80;60.00;;;;;;5102556;28;20034;-46
2022/05/26 04:08:22;;;;;;;1.40;1.30;;;22.70;59.90;;;;;;5100907;28;20087;-45
2022/05/26 04:10:48;;;;;;;1.60;1.50;;;22.80;60.20;;;;;;5097364;28;20493;-46
2022/05/26 04:13:14;;;;;;;1.40;1.30;;;22.80;59.80;;;;;;5102721;28;20040;-45
2022/05/26 04:15:40;;;;;;;1.30;1.20;;;22.70;59.40;;;;;;5107657;28;20058;-48
2022/05/26 04:18:07;;;;;;;1.40;1.30;;;22.70;58.90;;;;;;5095683;28;20078;-45
2022/05/26 04:20:33;;;;;;;1.73;1.60;;;22.70;58.50;;;;;;5097537;28;20110;-46
2022/05/26 04:22:59;;;;;;;1.30;1.20;;;22.70;58.50;;;;;;5103469;28;20352;-47
2022/05/26 04:25:25;;;;;;;1.60;1.38;;;22.60;59.00;;;;;;5094808;28;20039;-46
2022/05/26 04:27:55;;;;;;;2.08;1.60;;;22.60;58.70;;;;;;5097783;28;20024;-47
2022/05/26 04:30:22;;;;;;;3.47;2.10;;;22.60;58.90;;;;;;5098484;28;20541;-46
2022/05/26 04:32:48;;;;;;;4.55;2.85;;;22.60;58.70;;;;;;5103196;28;20057;-48
2022/05/26 04:35:14;;;;;;;5.40;3.08;;;22.60;58.30;;;;;;5099201;28;20021;-46
2022/05/26 04:37:40;;;;;;;5.05;3.40;;;22.50;57.90;;;;;;5097524;28;20047;-48
2022/05/26 04:40:07;;;;;;;7.95;3.63;;;22.50;57.90;;;;;;5105073;28;20099;-46
2022/05/26 04:42:34;;;;;;;5.20;3.00;;;22.50;58.20;;;;;;5102545;28;20036;-46
2022/05/26 04:45:00;;;;;;;7.97;3.67;;;22.40;58.20;;;;;;5090612;28;20028;-45
2022/05/26 04:47:27;;;;;;;6.72;3.33;;;22.40;58.40;;;;;;5097755;28;20032;-46
2022/05/26 04:49:53;;;;;;;6.43;3.38;;;22.40;58.40;;;;;;5096708;28;20043;-46
2022/05/26 04:52:20;;;;;;;7.10;3.50;;;22.40;58.10;;;;;;5103555;28;20087;-46
2022/05/26 04:54:47;;;;;;;6.90;3.65;;;22.40;57.80;;;;;;5098514;28;20035;-46
2022/05/26 04:57:14;;;;;;;7.80;3.50;;;22.30;57.80;;;;;;5100053;28;20055;-46
2022/05/26 04:59:41;;;;;;;8.32;3.50;;;22.30;58.00;;;;;;5099378;28;20040;-47
2022/05/26 05:02:11;;;;;;;4.05;2.75;;;22.30;58.20;;;;;;5104768;28;20032;-46
2022/05/26 05:04:38;;;;;;;5.35;2.88;;;22.30;58.40;;;;;;5094916;28;20091;-46
2022/05/26 05:07:04;;;;;;;;;;;22.20;58.70;;;;;;5102703;28;20055;-46
2022/05/26 05:09:30;;;;;;;6.03;2.83;;;22.20;58.90;;;;;;5099983;28;19911;-46
2022/05/26 05:11:56;;;;;;;5.43;3.03;;;22.20;58.80;;;;;;5108812;28;20052;-47
2022/05/26 05:14:22;;;;;;;5.93;3.00;;;22.20;58.50;;;;;;5098874;28;20091;-45
2022/05/26 05:16:48;;;;;;;4.88;2.95;;;22.20;58.40;;;;;;5100871;28;20500;-47
2022/05/26 05:19:16;;;;;;;4.05;2.50;;;22.20;58.40;;;;;;5095938;28;20055;-46
2022/05/26 05:21:50;;;;;;;6.05;2.85;;;22.10;58.50;;;;;;5101718;28;20055;-47
2022/05/26 05:24:23;;;;;;;3.65;2.70;;;22.10;59.30;;;;;;5097852;28;20035;-48
2022/05/26 05:26:52;;;;;;;3.90;2.30;;;22.10;58.90;;;;;;5101788;28;20025;-48
2022/05/26 05:29:19;;;;;;;3.97;2.70;;;22.10;59.10;;;;;;5095234;28;20486;-48
2022/05/26 05:31:57;;;;;;;3.70;2.38;;;22.10;59.30;;;;;;5100159;28;20029;-48
2022/05/26 05:34:26;;;;;;;4.47;2.55;;;22.10;59.50;;;;;;5094127;28;20087;-48
2022/05/26 05:36:52;;;;;;;3.97;2.53;;;22.10;59.70;;;;;;5096993;28;20032;-47
2022/05/26 05:39:19;;;;;;;4.00;2.25;;;22.00;59.80;;;;;;5104273;28;20044;-48
2022/05/26 05:41:45;;;;;;;4.78;2.45;;;22.10;60.00;;;;;;5100304;28;20036;-48
2022/05/26 05:44:11;;;;;;;3.45;2.15;;;22.00;60.20;;;;;;5097131;28;20031;-48
2022/05/26 05:46:58;;;;;;;3.10;2.08;;;22.00;60.40;;;;;;5098845;28;20020;-38
2022/05/26 05:49:27;;;;;;;4.45;2.10;;;22.10;60.70;;;;;;5100062;28;20032;-38
2022/05/26 05:51:54;;;;;;;4.68;2.30;;;22.10;60.90;;;;;;5104429;28;20024;-43
2022/05/26 05:54:20;;;;;;;3.60;2.10;;;22.10;61.10;;;;;;5098918;28;20156;-38
2022/05/26 05:56:47;;;;;;;3.55;2.22;;;22.10;61.20;;;;;;5105816;28;20024;-38
2022/05/26 05:59:13;;;;;;;5.40;2.23;;;22.10;61.40;;;;;;5099352;28;20040;-39
2022/05/26 06:01:39;;;;;;;4.72;2.03;;;22.10;61.50;;;;;;5098198;28;20028;-38
2022/05/26 06:04:05;;;;;;;3.85;2.22;;;22.10;61.60;;;;;;5100978;28;20024;-38
2022/05/26 06:06:40;;;;;;;2.73;2.07;;;22.10;61.70;;;;;;5103545;28;20030;-37
2022/05/26 06:09:06;;;;;;;2.83;2.22;;;22.10;61.90;;;;;;5094839;28;20031;-37
2022/05/26 06:11:33;;;;;;;3.70;2.40;;;22.10;61.90;;;;;;5102368;28;20047;-39
2022/05/26 06:14:00;;;;;;;;;;;22.10;62.00;;;;;;5096257;28;20035;-38
2022/05/26 06:16:27;;;;;;;4.38;2.08;;;22.10;62.00;;;;;;5099557;28;19977;-37
2022/05/26 06:18:54;;;;;;;3.28;1.83;;;22.10;62.20;;;;;;5099829;28;20208;-38
2022/05/26 06:21:20;;;;;;;3.47;2.20;;;22.10;62.30;;;;;;5095760;28;20035;-37
2022/05/26 06:23:46;;;;;;;2.78;1.80;;;22.10;62.30;;;;;;5101284;28;20036;-38
2022/05/26 06:26:12;;;;;;;3.00;1.88;;;22.10;62.40;;;;;;5098609;28;20418;-37
2022/05/26 06:31:23;;;;;;;3.00;1.85;;;22.10;62.60;;;;;;5091023;28;20103;-39
2022/05/26 06:39:38;;;;;;;3.75;1.80;;;22.10;62.90;;;;;;5053125;28;20037;-38
2022/05/26 06:42:05;;;;;;;3.50;1.63;;;22.10;62.90;;;;;;5057726;28;20066;-39
2022/05/26 06:44:37;;;;;;;2.22;1.90;;;22.10;63.00;;;;;;5060463;28;20037;-38
2022/05/26 06:47:15;;;;;;;2.28;1.52;;;22.20;63.10;;;;;;5054881;28;20033;-38
2022/05/26 06:49:42;;;;;;;1.95;1.65;;;22.20;63.20;;;;;;5054000;28;20039;-39
2022/05/26 06:52:08;;;;;;;2.75;1.83;;;22.20;63.20;;;;;;5059836;28;20033;-38
2022/05/26 06:54:36;;;;;;;2.30;1.52;;;22.20;63.20;;;;;;5055532;28;20056;-37
2022/05/26 06:57:03;;;;;;;2.00;1.73;;;22.20;63.30;;;;;;5056911;28;20037;-38
2022/05/26 06:59:29;;;;;;;;;;;22.20;63.40;;;;;;5043154;28;20108;-38
2022/05/26 07:01:55;;;;;;;2.50;1.77;;;22.20;63.30;;;;;;5062730;28;19964;-39
2022/05/26 07:04:22;;;;;;;2.70;1.88;;;22.20;63.50;;;;;;5062765;28;20096;-40
2022/05/26 07:06:50;;;;;;;1.80;1.70;;;22.20;63.50;;;;;;5058671;28;20056;-39
2022/05/26 07:09:16;;;;;;;3.42;2.00;;;22.20;63.60;;;;;;5056286;28;20036;-39
2022/05/26 07:11:43;;;;;;;2.60;1.80;;;22.20;63.60;;;;;;5102316;28;20201;-39
2022/05/26 07:14:09;;;;;;;2.72;1.60;;;22.20;63.70;;;;;;5100386;28;20056;-37
2022/05/26 07:16:35;;;;;;;2.50;1.60;;;22.20;63.70;;;;;;5096122;28;20148;-39
2022/05/26 07:19:01;;;;;;;2.08;1.80;;;22.20;63.80;;;;;;5096520;28;20767;-38
2022/05/26 07:21:27;;;;;;;2.25;1.63;;;22.20;63.80;;;;;;5103791;28;20036;-38
2022/05/26 07:23:53;;;;;;;2.83;1.60;;;22.20;63.80;;;;;;5100317;28;20084;-38
2022/05/26 07:26:20;;;;;;;2.50;1.73;;;22.30;63.90;;;;;;5102639;28;20034;-39
2022/05/26 07:28:46;;;;;;;2.30;1.73;;;22.30;64.00;;;;;;5100631;28;20511;-41
2022/05/26 07:31:13;;;;;;;2.45;1.65;;;22.30;64.00;;;;;;5094038;28;20060;-39
2022/05/26 07:33:39;;;;;;;1.73;1.50;;;22.30;64.00;;;;;;5098402;28;20135;-41
2022/05/26 07:36:06;;;;;;;1.98;1.52;;;22.30;64.00;;;;;;5096183;28;20032;-39
2022/05/26 07:41:33;;;;;;;2.28;1.60;;;22.30;63.40;;;;;;5075737;28;20055;-37
2022/05/26 07:43:59;;;;;;;3.35;1.85;;;22.30;62.60;;;;;;5078963;28;20182;-40
2022/05/26 07:46:26;;;;;;;3.85;1.67;;;22.30;62.60;;;;;;5074562;28;20024;-40
2022/05/26 07:48:52;;;;;;;1.90;1.47;;;22.30;62.60;;;;;;5073785;28;20157;-48
2022/05/26 07:51:21;;;;;;;2.60;1.75;;;22.30;62.60;;;;;;5074424;28;20321;-41
2022/05/26 07:53:47;;;;;;;2.38;1.63;;;22.30;63.40;;;;;;5078386;28;20055;-39
2022/05/26 07:56:14;;;;;;;3.05;1.73;;;22.30;62.70;;;;;;5082865;28;20077;-40
2022/05/26 07:58:40;;;;;;;3.00;1.75;;;22.30;62.60;;;;;;5080079;28;20052;-41
2022/05/26 08:01:07;;;;;;;4.57;2.20;;;22.30;61.90;;;;;;5080544;28;20025;-43
2022/05/26 08:03:34;;;;;;;3.67;1.90;;;22.30;61.30;;;;;;5073747;28;20051;-40
2022/05/26 08:06:01;;;;;;;3.92;1.73;;;22.30;60.60;;;;;;5077191;28;20120;-39
2022/05/26 08:08:27;;;;;;;3.20;1.90;;;22.30;60.10;;;;;;5078038;28;20103;-39
2022/05/26 08:10:53;;;;;;;3.65;1.90;;;22.30;59.90;;;;;;5079402;28;20016;-38
2022/05/26 08:13:19;;;;;;;2.78;1.77;;;22.30;59.50;;;;;;5079367;28;20092;-41
2022/05/26 08:15:46;;;;;;;4.07;1.90;;;22.30;59.20;;;;;;5087669;28;20039;-40
2022/05/26 08:18:13;;;;;;;2.47;1.52;;;22.20;58.90;;;;;;5090908;28;20055;-39
2022/05/26 08:20:39;;;;;;;2.58;1.70;;;22.20;58.70;;;;;;5107420;28;20040;-40
2022/05/26 08:23:05;;;;;;;3.05;1.60;;;22.20;58.50;;;;;;5098243;28;20028;-38
2022/05/26 08:25:31;;;;;;;2.53;1.70;;;22.10;58.30;;;;;;5106723;28;20027;-40
2022/05/26 08:27:58;;;;;;;1.88;1.45;;;22.10;58.10;;;;;;5095995;28;20032;-39
2022/05/26 08:30:24;;;;;;;3.33;1.60;;;22.10;58.00;;;;;;5093890;28;20055;-42
2022/05/26 08:32:55;;;;;;;1.98;1.40;;;22.10;57.80;;;;;;5097524;28;20043;-39
2022/05/26 08:35:21;;;;;;;1.98;1.40;;;22.00;57.70;;;;;;5100956;28;20032;-38
2022/05/26 08:37:48;;;;;;;1.50;1.40;;;22.00;57.60;;;;;;5105360;28;20027;-37
2022/05/26 08:40:34;;;;;;;2.00;1.38;;;22.00;57.50;;;;;;5096050;28;20173;-37
2022/05/26 08:43:04;;;;;;;1.80;1.38;;;21.90;57.40;;;;;;5094562;28;20031;-37
2022/05/26 08:45:34;;;;;;;1.50;1.30;;;21.90;57.30;;;;;;5094619;28;20043;-37
2022/05/26 08:48:00;;;;;;;1.75;1.40;;;21.80;57.20;;;;;;5102442;28;20051;-38
2022/05/26 08:50:32;;;;;;;1.75;1.40;;;21.80;57.20;;;;;;5100261;28;20036;-36
2022/05/26 08:53:11;;;;;;;1.30;1.10;;;21.70;57.10;;;;;;5080837;28;20063;-38
2022/05/26 08:55:45;;;;;;;1.30;1.20;;;21.70;57.10;;;;;;5082487;28;20016;-36
2022/05/26 08:58:22;;;;;;;1.75;1.45;;;21.60;57.00;;;;;;5100211;28;20082;-37
2022/05/26 09:00:50;;;;;;;1.20;1.10;;;21.60;57.00;;;;;;5097712;28;20025;-37
2022/05/26 09:03:30;;;;;;;2.13;1.42;;;21.60;57.00;;;;;;5101753;28;20036;-40
2022/05/26 09:06:06;;;;;;;1.23;1.02;;;21.50;56.90;;;;;;5099733;28;20108;-37
2022/05/26 09:14:08;;;;;;;1.40;1.23;;;21.40;56.80;;;;;;5099957;28;20119;-38
2022/05/26 09:16:41;;;;;;;1.83;1.40;;;21.40;56.90;;;;;;5096450;28;20039;-37
2022/05/26 09:19:19;;;;;;;1.75;1.23;;;21.30;56.80;;;;;;5100520;28;20108;-37
2022/05/26 09:21:46;;;;;;;1.30;1.20;;;21.30;56.80;;;;;;5106393;28;20040;-38
2022/05/26 09:24:24;;;;;;;1.13;1.02;;;21.20;56.80;;;;;;5101390;28;20024;-38
2022/05/26 09:26:55;;;;;;;;;;;21.20;56.80;;;;;;5100225;28;20109;-38
2022/05/26 09:29:34;;;;;;;1.77;1.00;;;21.10;56.80;;;;;;5096411;28;19912;-37
2022/05/26 09:32:01;;;;;;;1.48;1.25;;;21.10;56.80;;;;;;5095679;28;20766;-37
2022/05/26 09:34:29;;;;;;;1.33;1.20;;;21.00;56.70;;;;;;5100814;28;20047;-37
2022/05/26 09:37:03;;;;;;;1.20;1.10;;;21.00;56.70;;;;;;5105051;28;20039;-37
2022/05/26 09:39:37;;;;;;;1.40;1.20;;;21.00;56.70;;;;;;5100092;28;20039;-38
2022/05/26 09:42:16;;;;;;;1.20;1.02;;;20.90;56.70;;;;;;5099375;28;20069;-38
2022/05/26 09:44:53;;;;;;;1.40;1.23;;;20.90;56.70;;;;;;5096891;28;20533;-38
2022/05/26 09:47:34;;;;;;;1.13;1.02;;;20.80;56.80;;;;;;5099496;28;20036;-38
2022/05/26 09:50:05;;;;;;;1.23;1.13;;;20.80;56.80;;;;;;5099078;28;20064;-38
2022/05/26 09:52:44;;;;;;;1.35;1.25;;;20.70;56.70;;;;;;5098842;28;20036;-38
2022/05/26 09:55:24;;;;;;;1.20;1.10;;;20.70;56.80;;;;;;5094418;28;20051;-38
2022/05/26 09:58:02;;;;;;;1.38;1.20;;;20.60;56.70;;;;;;5101666;28;20040;-38
2022/05/26 10:00:35;;;;;;;1.27;1.10;;;20.60;56.80;;;;;;5095191;28;20089;-38
2022/05/26 10:03:09;;;;;;;1.48;1.20;;;20.60;56.80;;;;;;5099066;28;20500;-39
2022/05/26 10:06:02;;;;;;;1.10;1.10;;;20.50;56.70;;;;;;5095996;28;20054;-38
2022/05/26 10:08:42;;;;;;;1.83;1.20;;;20.50;56.80;;;;;;5121788;27;20043;-38
2022/05/26 10:11:49;;;;;;;1.10;1.00;;;20.50;56.80;;;;;;5100285;28;20066;-38
2022/05/26 10:14:20;;;;;;;1.27;1.10;;;20.40;56.80;;;;;;5055752;28;20040;-47
2022/05/26 10:16:50;;;;;;;2.08;1.20;;;20.40;56.80;;;;;;5058967;28;20044;-47
2022/05/26 10:19:35;;;;;;;1.27;0.90;;;20.30;56.80;;;;;;5041069;28;20041;-39
2022/05/26 10:22:11;;;;;;;1.27;1.10;;;20.20;57.00;;;;;;5039411;28;20025;-39
2022/05/26 10:24:45;;;;;;;3.65;1.10;;;20.20;57.40;;;;;;5055834;28;20534;-55
2022/05/26 10:27:23;;;;;;;8.15;1.20;;;20.10;57.90;;;;;;5056649;28;20036;-37
2022/05/26 10:29:49;;;;;;;;;;;20.10;58.20;;;;;;5060022;28;20048;-38
2022/05/26 10:32:36;;;;;;;3.15;1.33;;;20.10;58.40;;;;;;5058726;28;19913;-43
2022/05/26 10:35:25;;;;;;;3.80;1.50;;;20.00;58.30;;;;;;5042285;28;20151;-41
2022/05/26 10:37:56;;;;;;;;;;;20.00;58.10;;;;;;5057805;28;20053;-39
2022/05/26 10:40:22;;;;;;;3.08;1.95;;;20.00;58.30;;;;;;5045738;28;19908;-40
2022/05/26 10:42:54;;;;;;;3.05;1.85;;;19.90;58.20;;;;;;5057301;28;20541;-39
2022/05/26 10:45:42;;;;;;;4.72;1.83;;;19.90;58.40;;;;;;5056378;28;20057;-34
2022/05/26 10:48:15;;;;;;;2.22;1.42;;;19.80;59.30;;;;;;5058027;28;20029;-35
2022/05/26 10:50:53;;;;;;;2.00;1.45;;;19.80;58.60;;;;;;5094018;28;20036;-34
2022/05/26 10:53:28;;;;;;;3.03;1.50;;;19.80;58.50;;;;;;5099065;28;20488;-34
2022/05/26 10:56:02;;;;;;;1.75;1.30;;;19.80;58.50;;;;;;5101570;28;20024;-35
2022/05/26 10:58:42;;;;;;;1.85;1.40;;;19.70;58.50;;;;;;5103098;28;20036;-35
2022/05/26 11:01:20;;;;;;;2.50;1.40;;;19.70;58.40;;;;;;5101255;28;20039;-35
2022/05/26 11:03:50;;;;;;;1.52;1.17;;;19.70;58.50;;;;;;5103866;28;20054;-35
2022/05/26 11:06:33;;;;;;;2.35;1.30;;;19.60;58.40;;;;;;5102193;28;20024;-34
2022/05/26 11:09:14;;;;;;;1.70;1.10;;;19.60;58.30;;;;;;5100978;28;20481;-34
2022/05/26 11:11:51;;;;;;;1.48;1.25;;;19.60;58.40;;;;;;5109588;28;20044;-35
2022/05/26 11:17:24;;;;;;;1.13;1.02;;;19.50;58.40;;;;;;5086332;28;20058;-35
2022/05/26 11:19:59;;;;;;;1.20;1.10;;;19.50;58.40;;;;;;5105041;28;20560;-36
2022/05/26 11:22:25;;;;;;;1.30;1.20;;;19.40;58.40;;;;;;5105243;28;20042;-35
2022/05/26 11:24:52;;;;;;;2.38;1.30;;;19.40;58.50;;;;;;5103353;28;20090;-35
2022/05/26 11:27:21;;;;;;;1.20;1.10;;;19.40;58.40;;;;;;5102708;28;20017;-35
2022/05/26 11:29:50;;;;;;;1.95;1.20;;;19.30;58.40;;;;;;5105514;28;20032;-35
2022/05/26 11:38:16;;;;;;;1.40;1.30;;;19.30;58.60;;;;;;5104863;28;20051;-36
2022/05/26 11:41:03;;;;;;;1.20;1.10;;;19.20;58.60;;;;;;5103144;28;20444;-35
2022/05/26 11:43:45;;;;;;;1.50;1.17;;;19.20;58.70;;;;;;5106809;28;20051;-36
2022/05/26 11:46:13;;;;;;;2.13;1.25;;;19.20;60.00;;;;;;5092581;28;20039;-36
2022/05/26 11:48:41;;;;;;;1.50;1.40;;;19.10;61.20;;;;;;5107135;28;20121;-35
2022/05/26 11:51:27;;;;;;;1.20;1.10;;;19.10;61.90;;;;;;5106699;28;20032;-35
2022/05/26 11:53:54;;;;;;;1.73;1.23;;;19.10;62.30;;;;;;5104553;28;20054;-35
2022/05/26 11:56:30;;;;;;;1.40;1.30;;;19.10;62.60;;;;;;5103861;28;20036;-35
2022/05/26 11:59:23;;;;;;;1.38;1.27;;;19.10;63.00;;;;;;5109148;28;20071;-36
2022/05/26 12:02:08;;;;;;;1.30;1.20;;;19.10;63.30;;;;;;5116115;28;20035;-35
2022/05/26 12:04:38;;;;;;;1.30;1.20;;;19.00;63.50;;;;;;5107497;28;20042;-36
2022/05/26 12:07:06;;;;;;;1.40;1.30;;;19.10;63.60;;;;;;5101149;28;20091;-35
2022/05/26 12:09:37;;;;;;;1.90;1.67;;;19.00;63.80;;;;;;5106527;28;20016;-35
2022/05/26 12:12:24;;;;;;;1.38;1.27;;;19.10;64.00;;;;;;5106119;28;20038;-36
2022/05/26 12:14:52;;;;;;;1.20;1.10;;;19.10;64.20;;;;;;5097983;28;20053;-35
2022/05/26 12:17:34;;;;;;;1.33;1.23;;;19.10;64.20;;;;;;5108056;28;20063;-36
2022/05/26 12:20:12;;;;;;;1.20;1.10;;;19.10;64.30;;;;;;5108555;28;20050;-35
2022/05/26 12:22:51;;;;;;;1.17;1.05;;;19.10;64.40;;;;;;5102942;28;20062;-44
2022/05/26 12:25:25;;;;;;;1.17;1.08;;;19.10;64.60;;;;;;5110565;28;20028;-43
2022/05/26 12:28:15;;;;;;;1.98;1.30;;;19.10;64.60;;;;;;5111388;28;20087;-44
2022/05/26 12:30:48;;;;;;;1.30;1.00;;;19.10;64.50;;;;;;5108568;28;20023;-44
2022/05/26 12:33:21;;;;;;;1.30;1.20;;;19.10;64.50;;;;;;5108632;28;20043;-44
2022/05/26 12:36:02;;;;;;;1.40;1.30;;;19.10;64.60;;;;;;5105873;28;20049;-43
2022/05/26 12:38:38;;;;;;;2.15;1.20;;;19.10;64.70;;;;;;5109565;28;20036;-43
2022/05/26 12:41:17;;;;;;;1.45;1.05;;;19.10;64.80;;;;;;5108164;28;20424;-44
2022/05/26 12:43:53;;;;;;;1.35;1.25;;;19.10;64.80;;;;;;5110780;28;20556;-44
2022/05/26 12:46:41;;;;;;;1.90;1.08;;;19.20;64.90;;;;;;5105078;28;20028;-44
2022/05/26 12:49:15;;;;;;;1.10;1.00;;;19.20;64.90;;;;;;5088013;28;20047;-44
2022/05/26 12:51:42;;;;;;;1.20;1.10;;;19.20;65.30;;;;;;5103650;28;20024;-44
2022/05/26 12:54:13;;;;;;;1.23;1.13;;;19.20;65.00;;;;;;5105220;28;20095;-44
2022/05/26 12:57:06;;;;;;;1.50;1.40;;;19.20;65.10;;;;;;5085977;28;20115;-44
2022/05/26 12:59:32;;;;;;;1.35;1.25;;;19.20;65.20;;;;;;5100894;28;20635;-43
2022/05/26 13:01:58;;;;;;;1.45;1.30;;;19.30;65.20;;;;;;5103748;28;20042;-43
2022/05/26 13:04:34;;;;;;;1.15;1.10;;;19.30;65.20;;;;;;5111735;28;20031;-44
2022/05/26 13:07:04;;;;;;;1.70;1.30;;;19.30;65.20;;;;;;5103075;28;20055;-43
2022/05/26 13:09:33;;;;;;;1.23;1.10;;;19.30;65.20;;;;;;5106563;28;20028;-43
2022/05/26 13:12:03;;;;;;;1.88;1.30;;;19.30;65.30;;;;;;5103675;28;20063;-43
2022/05/26 13:14:38;;;;;;;2.00;1.30;;;19.30;65.30;;;;;;5107475;28;20042;-43
2022/05/26 13:17:12;;;;;;;1.08;0.98;;;19.30;65.30;;;;;;5107746;28;20024;-44
2022/05/26 13:19:48;;;;;;;1.27;1.15;;;19.40;65.40;;;;;;5110057;28;20051;-44
2022/05/26 13:22:38;;;;;;;1.45;1.17;;;19.40;65.40;;;;;;5101413;28;20031;-44
2022/05/26 13:25:11;;;;;;;1.40;1.30;;;19.40;65.50;;;;;;5100014;28;20131;-44
2022/05/26 13:27:50;;;;;;;1.00;0.90;;;19.40;65.50;;;;;;5107888;28;20036;-43
2022/05/26 13:33:08;;;;;;;1.10;1.00;;;19.50;65.60;;;;;;5106532;28;20034;-44
2022/05/26 13:35:41;;;;;;;1.10;1.00;;;19.50;65.60;;;;;;5106546;28;20028;-44
2022/05/26 13:38:20;;;;;;;1.13;1.02;;;19.50;65.60;;;;;;5099975;28;20044;-44
2022/05/26 13:40:46;;;;;;;0.88;0.85;;;19.50;65.50;;;;;;5107791;28;20105;-43
2022/05/26 13:43:13;;;;;;;1.50;1.10;;;19.50;65.60;;;;;;5105815;28;20094;-44
2022/05/26 13:45:39;;;;;;;1.38;1.20;;;19.50;65.60;;;;;;5104171;28;20036;-44
2022/05/26 13:48:32;;;;;;;1.30;1.20;;;19.50;65.60;;;;;;5100168;28;20043;-44
2022/05/26 13:51:04;;;;;;;1.25;1.13;;;19.60;65.70;;;;;;5109012;28;20031;-44
2022/05/26 13:53:30;;;;;;;0.85;0.85;;;19.60;65.70;;;;;;5103073;28;20024;-43